Time;durP1;ratioP1;P1;durP2;ratioP2;P2;SDS_P1;SDS_P2;PMS_P1;PMS_P2;Temp;Humidity;BMP_temperature;BMP_pressure;BME280_temperature;BME280_humidity;BME280_pressure;Samples;Min_cycle;Max_cycle;Signal;HPM_P1;HPM_P2
2022/01/14 00:02:49;;;;;;;3.63;1.88;;;20.60;45.20;;;;;;5039139;23;20045;-90
2022/01/14 00:05:26;;;;;;;3.47;1.70;;;20.60;46.30;;;;;;5017528;28;20725;-92
2022/01/14 00:07:52;;;;;;;3.30;1.88;;;20.90;46.80;;;;;;5017596;28;20045;-93
2022/01/14 00:11:16;;;;;;;4.50;1.77;;;21.40;46.50;;;;;;5017770;28;20068;-92
2022/01/14 00:14:58;;;;;;;4.63;2.13;;;20.60;45.30;;;;;;5017777;28;20053;-92
2022/01/14 00:18:46;;;;;;;3.33;1.60;;;20.50;45.20;;;;;;5031159;28;20081;-91
2022/01/14 00:22:07;;;;;;;4.63;1.90;;;20.20;45.10;;;;;;5017863;28;20049;-91
2022/01/14 00:34:45;;;;;;;3.60;1.70;;;21.20;45.80;;;;;;4994441;28;20050;-91
2022/01/14 00:37:12;;;;;;;3.92;1.65;;;20.70;45.50;;;;;;4890873;29;20501;-90
2022/01/14 00:39:46;;;;;;;4.20;1.80;;;19.80;45.00;;;;;;4882088;29;20084;-91
2022/01/14 00:42:55;;;;;;;4.20;2.20;;;20.80;46.70;;;;;;4974765;28;20043;-91
2022/01/14 00:45:45;;;;;;;3.55;1.70;;;19.30;44.80;;;;;;4959105;28;20531;-92
2022/01/14 00:48:23;;;;;;;3.63;1.70;;;20.40;45.40;;;;;;4974258;28;20038;-91
2022/01/14 00:51:39;;;;;;;3.85;2.30;;;21.40;47.10;;;;;;4958408;28;20046;-92
2022/01/14 00:54:08;;;;;;;3.67;1.90;;;20.40;45.40;;;;;;4956136;28;20043;-92
2022/01/14 01:00:08;;;;;;;4.97;2.20;;;19.00;44.70;;;;;;4947375;28;20071;-92
2022/01/14 01:02:48;;;;;;;3.75;1.92;;;20.30;46.10;;;;;;4988078;28;20060;-92
2022/01/14 01:05:28;;;;;;;4.93;2.30;;;21.00;46.40;;;;;;4993660;28;20081;-91
2022/01/14 01:08:09;;;;;;;4.45;2.10;;;20.30;46.00;;;;;;4994152;28;20146;-92
2022/01/14 01:10:50;;;;;;;4.03;1.80;;;21.80;46.90;;;;;;4978764;28;20038;-92
2022/01/14 01:13:42;;;;;;;3.67;2.03;;;21.80;46.90;;;;;;4993420;28;20042;-92
2022/01/14 01:16:14;;;;;;;4.38;2.10;;;20.10;46.00;;;;;;4994089;28;20486;-92
2022/01/14 01:18:57;;;;;;;4.28;2.22;;;21.10;46.60;;;;;;4993777;28;20038;-92
2022/01/14 01:21:35;;;;;;;5.10;2.47;;;20.30;46.10;;;;;;4993761;28;20042;-92
2022/01/14 01:24:15;;;;;;;3.65;1.77;;;21.40;46.70;;;;;;4977898;28;20042;-92
2022/01/14 01:26:44;;;;;;;3.78;1.80;;;19.80;45.70;;;;;;4993464;28;20133;-92
2022/01/14 01:31:57;;;;;;;4.07;2.10;;;19.10;45.30;;;;;;5013309;28;20137;-92
2022/01/14 01:34:34;;;;;;;3.88;2.00;;;21.70;47.00;;;;;;5013558;28;20049;-92
2022/01/14 01:37:17;;;;;;;4.60;2.30;;;20.40;46.60;;;;;;5011882;28;20497;-92
2022/01/14 01:39:47;;;;;;;4.28;2.05;;;19.20;45.10;;;;;;5011749;28;20064;-93
2022/01/14 01:42:30;;;;;;;4.38;2.17;;;19.90;46.40;;;;;;5013410;28;20064;-92
2022/01/14 01:45:22;;;;;;;4.10;2.00;;;19.80;46.30;;;;;;4980981;28;20046;-91
2022/01/14 01:48:39;;;;;;;4.45;2.17;;;21.70;46.60;;;;;;5022360;23;20052;-92
2022/01/14 01:54:58;;;;;;;4.18;2.17;;;20.00;45.50;;;;;;5015562;28;20050;-92
2022/01/14 01:57:24;;;;;;;4.40;2.20;;;18.20;44.80;;;;;;5015489;28;20053;-92
2022/01/14 01:59:56;;;;;;;3.78;1.98;;;21.20;47.20;;;;;;5015487;28;20042;-91
2022/01/14 02:02:42;;;;;;;4.70;2.17;;;21.00;47.30;;;;;;5016269;28;20049;-92
2022/01/14 02:05:23;;;;;;;4.22;2.10;;;21.50;47.90;;;;;;4998829;28;20042;-92
2022/01/14 02:08:04;;;;;;;5.63;2.03;;;20.00;46.20;;;;;;5016059;28;20053;-92
2022/01/14 02:11:03;;;;;;;3.58;2.08;;;19.90;46.70;;;;;;5015908;28;20370;-92
2022/01/14 02:13:37;;;;;;;3.55;1.88;;;19.40;45.40;;;;;;5016800;28;20124;-92
2022/01/14 02:16:30;;;;;;;3.85;1.70;;;21.20;47.20;;;;;;4999802;28;20101;-92
2022/01/14 02:22:11;;;;;;;4.10;1.92;;;19.60;45.70;;;;;;5048330;28;20050;-92
2022/01/14 02:25:06;;;;;;;3.70;1.85;;;18.30;44.90;;;;;;5015765;28;20056;-92
2022/01/14 02:27:41;;;;;;;3.63;1.80;;;20.60;46.50;;;;;;5016124;28;20052;-92
2022/01/14 02:30:43;;;;;;;4.43;2.10;;;21.20;46.60;;;;;;5015887;28;20033;-92
2022/01/14 02:33:15;;;;;;;3.70;2.13;;;20.00;45.70;;;;;;5016090;28;20056;-92
2022/01/14 02:36:02;;;;;;;3.95;2.00;;;20.10;46.10;;;;;;5018248;28;20179;-92
2022/01/14 02:38:31;;;;;;;4.32;2.10;;;20.20;46.60;;;;;;5042842;23;20051;-92
2022/01/14 02:41:02;;;;;;;3.60;1.70;;;18.00;45.50;;;;;;4940736;28;20109;-92
2022/01/14 02:43:37;;;;;;;4.60;2.13;;;19.90;46.50;;;;;;4956589;28;20047;-92
2022/01/14 02:46:15;;;;;;;3.13;1.70;;;21.30;47.50;;;;;;4957564;28;20043;-92
2022/01/14 02:49:33;;;;;;;;;;;;;;;;;;;;;
2022/01/14 02:52:13;;;;;;;3.55;1.90;;;20.00;45.80;;;;;;4895810;29;20056;-92
2022/01/14 02:55:13;;;;;;;3.90;2.10;;;20.80;47.20;;;;;;4880593;29;20045;-91
2022/01/14 02:57:59;;;;;;;5.32;2.08;;;17.90;45.00;;;;;;4880192;29;20063;-91
2022/01/14 03:00:36;;;;;;;4.22;1.85;;;18.30;45.70;;;;;;4880179;29;20049;-93
2022/01/14 03:03:23;;;;;;;4.60;2.00;;;19.80;45.90;;;;;;4880252;29;20505;-93
2022/01/14 03:05:55;;;;;;;4.13;1.90;;;20.50;46.50;;;;;;4879929;29;20041;-92
2022/01/14 03:08:35;;;;;;;3.38;1.80;;;18.00;45.40;;;;;;4903302;28;20055;-92
2022/01/14 03:11:12;;;;;;;4.07;1.70;;;19.90;46.30;;;;;;4946319;28;20431;-93
2022/01/14 03:13:38;;;;;;;4.55;2.10;;;20.90;46.70;;;;;;4956855;28;20054;-92
2022/01/14 03:16:25;;;;;;;2.97;1.40;;;18.00;45.40;;;;;;4940616;28;20070;-92
2022/01/14 03:19:12;;;;;;;3.47;1.88;;;18.50;45.20;;;;;;4974793;28;20057;-92
2022/01/14 03:21:49;;;;;;;3.55;1.88;;;17.70;45.00;;;;;;4960004;28;20061;-91
2022/01/14 03:27:07;;;;;;;4.35;1.80;;;21.30;46.80;;;;;;4960461;28;20050;-93
2022/01/14 03:29:44;;;;;;;;;;;20.90;47.10;;;;;;4962068;28;20553;-92
2022/01/14 03:32:31;;;;;;;3.53;1.75;;;19.70;45.80;;;;;;4959925;28;19938;-92
2022/01/14 03:35:11;;;;;;;3.95;1.98;;;17.90;45.40;;;;;;4960301;28;20157;-92
2022/01/14 03:37:42;;;;;;;3.40;1.80;;;20.60;46.70;;;;;;4960278;28;20509;-93
2022/01/14 03:40:59;;;;;;;5.47;2.17;;;20.70;46.90;;;;;;4959118;28;20411;-91
2022/01/14 03:44:12;;;;;;;4.03;1.80;;;20.50;46.30;;;;;;4958530;28;20082;-91
2022/01/14 03:46:49;;;;;;;4.40;1.98;;;19.20;45.60;;;;;;4959433;28;20055;-93
2022/01/14 03:49:27;;;;;;;3.85;1.70;;;19.70;46.50;;;;;;4958547;28;20521;-91
2022/01/14 03:52:08;;;;;;;4.00;2.00;;;19.70;47.20;;;;;;4959487;28;20047;-92
2022/01/14 03:54:49;;;;;;;3.83;1.95;;;19.80;47.00;;;;;;4959419;28;20043;-92
2022/01/14 03:57:29;;;;;;;3.15;1.80;;;17.50;45.20;;;;;;4958048;28;20051;-92
2022/01/14 04:00:08;;;;;;;3.83;1.77;;;19.80;47.10;;;;;;4958409;28;20065;-92
2022/01/14 04:02:51;;;;;;;3.95;2.03;;;19.60;46.30;;;;;;4943536;28;20134;-92
2022/01/14 04:05:30;;;;;;;;;;;;;;;;;;;;;
2022/01/14 04:08:25;;;;;;;4.43;2.15;;;19.80;47.40;;;;;;5034941;28;20095;-92
2022/01/14 04:11:30;;;;;;;3.20;1.75;;;20.10;47.10;;;;;;5051140;28;20061;-93
2022/01/14 04:17:13;;;;;;;4.30;1.70;;;17.60;45.10;;;;;;5008647;28;20049;-91
2022/01/14 04:20:06;;;;;;;3.08;1.63;;;19.20;45.80;;;;;;5015131;28;20520;-91
2022/01/14 04:22:48;;;;;;;3.63;1.77;;;19.40;45.90;;;;;;5034322;28;20053;-92
2022/01/14 04:25:28;;;;;;;3.60;1.60;;;20.90;47.80;;;;;;5026019;28;20112;-91
2022/01/14 04:28:13;;;;;;;3.30;1.80;;;21.00;47.60;;;;;;5033855;28;20041;-92
2022/01/14 04:30:54;;;;;;;4.22;1.70;;;19.40;46.40;;;;;;5024944;28;20038;-91
2022/01/14 04:33:35;;;;;;;4.13;1.92;;;20.20;46.60;;;;;;5017865;28;20136;-92
2022/01/14 04:36:19;;;;;;;3.70;1.67;;;21.30;47.60;;;;;;5033777;28;20071;-92
2022/01/14 04:39:04;;;;;;;3.00;1.88;;;21.30;47.70;;;;;;5033757;28;20049;-93
2022/01/14 04:41:42;;;;;;;2.85;1.30;;;18.80;46.40;;;;;;5032560;28;20092;-93
2022/01/14 04:44:17;;;;;;;3.85;1.75;;;18.70;46.20;;;;;;5033607;28;20124;-93
2022/01/14 04:47:13;;;;;;;3.45;1.58;;;20.70;47.50;;;;;;5034252;28;20046;-92
2022/01/14 04:50:20;;;;;;;3.83;1.73;;;20.80;46.90;;;;;;5033117;28;20085;-92
2022/01/14 04:53:00;;;;;;;3.25;1.48;;;19.70;46.20;;;;;;5032854;28;20065;-93
2022/01/14 04:55:41;;;;;;;3.40;1.63;;;21.00;47.40;;;;;;5033910;28;20041;-92
2022/01/14 04:58:27;;;;;;;2.70;1.50;;;19.50;47.40;;;;;;5033161;28;20140;-92
2022/01/14 05:01:42;;;;;;;3.22;1.38;;;20.90;47.60;;;;;;5033876;28;20077;-92
2022/01/14 05:04:23;;;;;;;3.60;1.67;;;18.80;45.80;;;;;;5027857;28;20096;-92
2022/01/14 05:07:03;;;;;;;2.38;1.30;;;19.60;45.70;;;;;;5032165;28;20045;-92
2022/01/14 05:09:41;;;;;;;2.33;1.30;;;19.50;46.50;;;;;;5032564;28;20041;-92
2022/01/14 05:12:16;;;;;;;3.15;1.40;;;20.30;47.40;;;;;;5033521;28;20053;-92
2022/01/14 05:15:11;;;;;;;3.03;1.30;;;18.20;46.20;;;;;;5035431;28;20458;-92
2022/01/14 05:17:55;;;;;;;2.78;1.15;;;19.70;46.40;;;;;;5036041;28;20053;-92
2022/01/14 05:20:29;;;;;;;2.25;1.17;;;19.60;46.90;;;;;;5020715;28;20045;-92
2022/01/14 05:23:11;;;;;;;2.33;1.25;;;20.00;47.50;;;;;;5036541;28;20041;-92
2022/01/14 05:25:57;;;;;;;3.05;1.60;;;19.90;46.80;;;;;;5035994;28;20110;-93
2022/01/14 05:28:31;;;;;;;2.80;1.20;;;19.70;46.40;;;;;;5036600;28;20049;-93
2022/01/14 05:31:16;;;;;;;3.45;1.63;;;19.70;47.00;;;;;;5036522;28;20037;-93
2022/01/14 05:34:00;;;;;;;3.85;1.50;;;19.60;48.30;;;;;;5032938;28;20053;-93
2022/01/14 05:36:40;;;;;;;3.03;1.48;;;20.50;47.40;;;;;;5036652;28;20055;-93
2022/01/14 05:39:20;;;;;;;2.30;1.20;;;18.90;46.00;;;;;;5037236;28;20049;-94
2022/01/14 05:41:58;;;;;;;2.95;1.35;;;21.40;47.40;;;;;;5035885;28;20049;-93
2022/01/14 05:44:38;;;;;;;2.58;1.20;;;21.00;47.30;;;;;;5036331;28;20037;-93
2022/01/14 05:47:22;;;;;;;2.63;1.13;;;20.00;46.50;;;;;;5036564;28;20497;-94
2022/01/14 05:50:03;;;;;;;2.33;1.13;;;21.50;47.70;;;;;;5036519;28;20043;-94
2022/01/14 05:52:43;;;;;;;3.13;1.42;;;19.90;46.40;;;;;;5036281;28;20080;-93
2022/01/14 05:55:21;;;;;;;2.92;1.23;;;21.20;48.50;;;;;;5036360;28;20045;-93
2022/01/14 05:58:06;;;;;;;3.33;1.20;;;21.60;47.40;;;;;;5035850;28;20087;-93
2022/01/14 06:00:38;;;;;;;2.58;1.33;;;18.40;45.80;;;;;;5036183;28;20049;-94
2022/01/14 06:03:25;;;;;;;2.80;1.10;;;20.20;47.10;;;;;;5035959;28;20049;-93
2022/01/14 06:05:52;;;;;;;2.70;1.05;;;20.10;46.80;;;;;;5036157;28;20063;-92
2022/01/14 06:08:29;;;;;;;2.80;1.30;;;21.60;48.40;;;;;;5036357;28;20099;-93
2022/01/14 06:11:07;;;;;;;2.45;1.17;;;21.70;47.40;;;;;;5036236;28;20090;-93
2022/01/14 06:13:33;;;;;;;2.13;1.20;;;21.70;47.90;;;;;;5018911;28;20052;-93
2022/01/14 06:16:14;;;;;;;2.35;1.20;;;20.10;46.60;;;;;;5032125;28;20413;-93
2022/01/14 06:18:40;;;;;;;2.50;1.00;;;20.20;46.60;;;;;;5033584;28;20041;-93
2022/01/14 06:21:07;;;;;;;3.25;0.95;;;20.70;46.90;;;;;;5035855;28;20099;-93
2022/01/14 06:23:38;;;;;;;2.15;1.00;;;21.40;47.40;;;;;;5035725;28;20045;-93
2022/01/14 06:26:31;;;;;;;2.10;1.03;;;20.30;46.70;;;;;;5035365;28;20041;-93
2022/01/14 06:30:06;;;;;;;2.50;1.08;;;20.30;46.20;;;;;;5072100;23;20053;-93
2022/01/14 06:32:57;;;;;;;2.50;1.10;;;20.10;46.00;;;;;;5002445;28;20516;-92
2022/01/14 06:43:34;;;;;;;2.50;1.10;;;20.50;46.20;;;;;;4879737;29;20606;-93
2022/01/14 06:50:11;;;;;;;;;;;;;;;;;;;;;
2022/01/14 06:53:13;;;;;;;2.15;1.00;;;21.60;47.30;;;;;;4813462;29;20249;-87
2022/01/14 06:56:38;;;;;;;2.63;0.90;;;20.10;46.20;;;;;;4844028;29;20532;-91
2022/01/14 07:09:25;;;;;;;1.70;0.80;;;20.50;46.00;;;;;;5054067;28;20057;-90
2022/01/14 07:15:36;;;;;;;3.45;1.33;;;20.60;46.00;;;;;;5057054;28;20550;-93
2022/01/14 07:18:20;;;;;;;2.83;1.10;;;20.60;46.50;;;;;;5039434;28;20399;-93
2022/01/14 07:20:56;;;;;;;2.60;0.90;;;18.70;45.30;;;;;;5038659;28;20041;-93
2022/01/14 07:23:40;;;;;;;2.20;1.02;;;21.90;47.60;;;;;;5039300;28;20053;-93
2022/01/14 07:26:17;;;;;;;2.67;1.10;;;20.50;47.00;;;;;;5036956;28;20057;-94
2022/01/14 07:29:09;;;;;;;2.92;1.30;;;21.40;47.20;;;;;;5037491;28;20041;-94
2022/01/14 07:31:50;;;;;;;2.57;1.20;;;20.00;45.60;;;;;;5013177;28;20049;-93
2022/01/14 07:34:16;;;;;;;3.70;1.30;;;20.60;46.40;;;;;;5089652;23;20304;-93
2022/01/14 07:37:04;;;;;;;2.65;1.10;;;21.50;46.80;;;;;;5015208;28;20033;-93
2022/01/14 07:39:51;;;;;;;2.90;1.30;;;20.60;45.80;;;;;;5011553;28;20046;-93
2022/01/14 07:42:25;;;;;;;2.25;1.10;;;21.20;46.60;;;;;;5006957;28;20073;-93
2022/01/14 07:44:54;;;;;;;2.70;0.90;;;20.50;46.10;;;;;;5014133;28;20103;-93
2022/01/14 07:48:01;;;;;;;2.83;1.08;;;21.40;47.00;;;;;;4980433;28;20141;-93
2022/01/14 07:50:26;;;;;;;2.58;1.13;;;19.50;45.20;;;;;;4998485;28;20144;-90
2022/01/14 07:53:00;;;;;;;3.03;1.27;;;22.00;47.10;;;;;;4998074;28;20138;-93
2022/01/14 07:55:26;;;;;;;2.50;1.10;;;22.00;46.90;;;;;;4998625;28;20081;-93
2022/01/14 07:59:02;;;;;;;;;;;;;;;;;;;;;
2022/01/14 08:09:43;;;;;;;3.47;1.10;;;20.50;45.80;;;;;;5012685;28;20054;-93
2022/01/14 08:12:09;;;;;;;2.75;1.20;;;19.50;45.20;;;;;;5015881;28;20124;-91
2022/01/14 08:18:00;;;;;;;2.83;1.10;;;20.20;45.60;;;;;;5213058;23;20076;-94
2022/01/14 08:20:53;;;;;;;3.80;1.30;;;20.90;47.50;;;;;;5019717;28;20094;-88
2022/01/14 08:23:50;;;;;;;3.20;1.38;;;22.10;46.70;;;;;;5024164;28;20687;-91
2022/01/14 08:26:21;;;;;;;3.42;1.33;;;22.10;46.90;;;;;;4996540;28;20581;-90
2022/01/14 08:46:30;;;;;;;2.38;1.08;;;20.60;45.90;;;;;;5034968;28;20504;-91
2022/01/14 08:48:58;;;;;;;3.70;1.48;;;19.30;45.20;;;;;;5026707;28;20128;-93
2022/01/14 08:58:53;;;;;;;3.60;1.20;;;20.10;45.60;;;;;;5036115;28;20041;-92
2022/01/14 09:01:50;;;;;;;2.08;0.90;;;19.90;46.30;;;;;;5034778;28;20068;-92
2022/01/14 09:04:21;;;;;;;3.10;1.08;;;20.40;45.90;;;;;;5037189;28;20056;-92
2022/01/14 09:07:31;;;;;;;2.80;1.10;;;21.80;47.10;;;;;;5037032;28;20049;-93
2022/01/14 09:10:41;;;;;;;2.70;1.10;;;19.60;45.40;;;;;;5036142;28;20091;-93
2022/01/14 09:21:00;;;;;;;2.75;0.82;;;20.00;45.70;;;;;;5014626;28;20057;-92
2022/01/14 09:23:54;;;;;;;2.67;0.95;;;20.30;46.80;;;;;;5192936;23;20103;-92
2022/01/14 09:51:36;;;;;;;2.75;0.82;;;19.30;45.30;;;;;;4979943;28;20053;-93
2022/01/14 09:54:04;;;;;;;12.50;2.88;;;21.80;47.40;;;;;;4989091;28;20100;-88
2022/01/14 09:56:30;;;;;;;13.65;3.17;;;20.40;46.30;;;;;;5005006;28;20121;-89
2022/01/14 09:58:55;;;;;;;9.32;2.13;;;20.40;46.00;;;;;;5009225;28;20169;-89
2022/01/14 10:01:22;;;;;;;5.90;2.60;;;20.40;46.00;;;;;;5011287;28;20158;-89
2022/01/14 10:03:49;;;;;;;7.78;2.15;;;20.40;46.00;;;;;;4996557;28;20494;-89
2022/01/14 10:06:46;;;;;;;6.60;2.10;;;21.70;46.70;;;;;;5007114;28;20088;-87
2022/01/14 10:09:21;;;;;;;8.10;2.00;;;20.40;46.10;;;;;;4994621;28;20057;-87
2022/01/14 10:12:01;;;;;;;8.55;1.85;;;21.30;46.60;;;;;;5007838;28;20089;-86
2022/01/14 10:14:27;;;;;;;7.47;1.77;;;20.30;46.10;;;;;;5007556;28;20050;-87
2022/01/14 10:16:54;;;;;;;4.25;1.67;;;20.30;46.20;;;;;;4992307;28;20041;-87
2022/01/14 10:19:21;;;;;;;7.85;1.63;;;20.30;46.20;;;;;;5004840;28;20088;-87
2022/01/14 10:21:47;;;;;;;7.45;1.70;;;20.30;46.20;;;;;;4994071;28;20049;-87
2022/01/14 10:24:13;;;;;;;4.47;1.48;;;20.30;46.20;;;;;;4966690;28;20459;-88
2022/01/14 10:26:57;;;;;;;4.55;1.60;;;20.30;46.20;;;;;;5003276;28;20088;-89
2022/01/14 10:29:34;;;;;;;5.18;1.30;;;20.40;46.30;;;;;;5003856;28;20191;-90
2022/01/14 10:32:00;;;;;;;7.07;1.80;;;20.40;46.30;;;;;;4998538;28;20153;-90
2022/01/14 10:34:26;;;;;;;5.93;1.55;;;20.40;46.30;;;;;;4980638;28;20134;-90
2022/01/14 10:37:11;;;;;;;3.13;1.10;;;21.80;47.30;;;;;;4996362;28;20497;-86
2022/01/14 10:39:46;;;;;;;4.80;1.42;;;20.40;46.40;;;;;;4972669;28;20414;-86
2022/01/14 10:42:21;;;;;;;5.15;1.38;;;20.40;46.40;;;;;;4987932;28;20427;-86
2022/01/14 10:44:47;;;;;;;3.83;1.20;;;20.40;46.50;;;;;;4988750;28;20054;-87
2022/01/14 10:47:20;;;;;;;4.95;1.33;;;20.40;46.40;;;;;;4989601;28;20434;-87
2022/01/14 10:49:49;;;;;;;4.40;1.50;;;20.40;46.70;;;;;;5004654;28;20058;-85
2022/01/14 10:52:20;;;;;;;6.10;1.98;;;20.40;46.60;;;;;;4989235;28;20426;-85
2022/01/14 10:54:50;;;;;;;5.53;2.03;;;20.40;46.60;;;;;;5003769;28;20050;-87
2022/01/14 10:57:18;;;;;;;3.20;1.48;;;20.40;46.60;;;;;;5013761;28;20042;-92
2022/01/14 10:59:44;;;;;;;61.92;19.13;;;20.40;46.60;;;;;;5012072;28;20399;-87
2022/01/14 11:02:30;;;;;;;36.78;12.52;;;20.40;46.50;;;;;;5007769;28;20068;-89
2022/01/14 11:05:16;;;;;;;53.15;19.48;;;20.40;46.50;;;;;;5007982;28;20054;-89
2022/01/14 11:07:42;;;;;;;82.80;31.35;;;20.40;46.50;;;;;;5008897;28;20054;-86
2022/01/14 11:10:18;;;;;;;210.05;70.78;;;20.40;46.50;;;;;;5008079;28;20405;-91
2022/01/14 11:12:44;;;;;;;214.93;74.03;;;20.40;46.50;;;;;;4990876;28;20085;-92
2022/01/14 11:15:10;;;;;;;194.18;72.45;;;20.40;46.60;;;;;;4997861;23;20430;-85
2022/01/14 11:26:50;;;;;;;139.48;50.92;;;20.40;46.80;;;;;;5039008;23;20057;-89
2022/01/14 11:29:17;;;;;;;177.02;61.95;;;20.40;46.80;;;;;;5010791;28;20049;-87
2022/01/14 11:32:05;;;;;;;170.02;60.92;;;20.40;46.80;;;;;;4930819;29;20082;-89
2022/01/14 11:34:34;;;;;;;151.35;55.28;;;20.40;47.20;;;;;;4932898;29;20410;-87
2022/01/14 11:37:29;;;;;;;143.00;55.85;;;19.40;46.40;;;;;;4933194;29;20055;-88
2022/01/14 11:40:12;;;;;;;133.98;53.55;;;19.90;47.40;;;;;;4952655;28;20118;-89
2022/01/14 11:42:46;;;;;;;129.63;52.10;;;20.30;47.30;;;;;;4921311;29;20051;-88
2022/01/14 11:45:53;;;;;;;122.72;49.28;;;20.30;46.80;;;;;;4937167;29;20126;-89
2022/01/14 11:48:37;;;;;;;122.93;48.45;;;19.10;46.20;;;;;;4935524;29;20054;-88
2022/01/14 11:51:04;;;;;;;121.47;47.03;;;20.30;46.90;;;;;;4936045;29;20058;-88
2022/01/14 11:54:19;;;;;;;116.80;47.25;;;21.20;47.40;;;;;;4932997;29;20043;-90
2022/01/14 11:56:45;;;;;;;117.90;46.55;;;20.30;46.80;;;;;;4958328;28;20462;-89
2022/01/14 11:59:22;;;;;;;112.90;45.85;;;21.80;47.80;;;;;;4974947;28;20042;-90
2022/01/14 12:02:00;;;;;;;112.95;46.58;;;21.50;47.60;;;;;;4955432;28;20051;-90
2022/01/14 12:05:09;;;;;;;116.65;43.28;;;19.90;46.90;;;;;;4954772;28;20051;-91
2022/01/14 12:08:07;;;;;;;108.15;43.05;;;20.30;46.80;;;;;;4966511;23;20055;-90
2022/01/14 12:10:46;;;;;;;105.60;42.35;;;20.20;46.80;;;;;;4995908;28;20091;-90
2022/01/14 12:13:43;;;;;;;105.63;42.08;;;21.00;47.20;;;;;;4997991;28;20074;-91
2022/01/14 12:16:09;;;;;;;97.95;40.17;;;20.20;46.80;;;;;;4994390;28;20046;-90
2022/01/14 12:18:56;;;;;;;95.47;39.60;;;20.20;46.80;;;;;;4995832;28;20517;-91
2022/01/14 12:25:37;;;;;;;88.82;37.80;;;20.20;46.80;;;;;;4964351;28;20158;-90
2022/01/14 12:28:57;;;;;;;97.68;38.55;;;19.60;46.50;;;;;;4947609;28;20043;-91
2022/01/14 12:32:20;;;;;;;88.90;38.28;;;19.40;46.40;;;;;;4963288;28;20041;-90
2022/01/14 12:35:02;;;;;;;94.90;37.05;;;20.40;47.00;;;;;;4946376;28;20083;-89
2022/01/14 12:37:31;;;;;;;83.60;35.03;;;21.50;47.90;;;;;;4956461;28;20074;-91
2022/01/14 12:40:02;;;;;;;82.57;33.80;;;20.90;47.20;;;;;;4956783;28;20077;-91
2022/01/14 12:42:27;;;;;;;75.22;31.20;;;20.50;47.00;;;;;;4956606;28;20050;-91
2022/01/14 12:44:58;;;;;;;70.85;30.67;;;20.10;47.00;;;;;;4953587;28;20090;-89
2022/01/14 12:51:29;;;;;;;65.13;28.63;;;20.30;47.00;;;;;;4991405;28;20453;-89
2022/01/14 12:53:56;;;;;;;64.43;29.38;;;20.80;48.10;;;;;;4974335;28;20050;-89
2022/01/14 12:56:37;;;;;;;62.63;26.92;;;20.10;47.30;;;;;;4974225;28;20042;-87
2022/01/14 12:59:07;;;;;;;59.63;26.35;;;21.90;47.80;;;;;;4956215;28;20087;-89
2022/01/14 13:01:56;;;;;;;65.15;24.48;;;20.80;47.30;;;;;;4952828;28;20043;-89
2022/01/14 13:04:22;;;;;;;56.08;24.20;;;20.20;47.00;;;;;;4948482;28;20043;-88
2022/01/14 13:06:52;;;;;;;51.92;23.45;;;20.00;46.90;;;;;;4954867;28;20131;-88
2022/01/14 13:09:25;;;;;;;49.13;23.13;;;20.00;46.90;;;;;;4954050;28;20045;-89
2022/01/14 13:12:04;;;;;;;54.35;23.52;;;20.00;46.90;;;;;;4940808;28;20039;-88
2022/01/14 13:15:21;;;;;;;52.60;23.40;;;20.00;46.90;;;;;;4950959;28;20791;-88
2022/01/14 13:18:24;;;;;;;52.63;22.63;;;20.00;46.90;;;;;;4939157;28;20054;-88
2022/01/14 13:21:17;;;;;;;53.83;23.10;;;19.90;46.90;;;;;;4918131;28;20070;-89
2022/01/14 13:30:42;;;;;;;53.10;22.50;;;20.00;46.90;;;;;;4936217;29;20055;-87
2022/01/14 13:33:31;;;;;;;51.55;22.15;;;20.10;47.20;;;;;;4935649;29;20155;-88
2022/01/14 13:39:38;;;;;;;31.75;14.43;;;20.10;47.00;;;;;;4969709;28;20038;-90
2022/01/14 13:42:04;;;;;;;28.48;12.13;;;20.30;48.20;;;;;;4955628;28;20045;-88
2022/01/14 13:44:43;;;;;;;27.67;11.82;;;20.10;48.00;;;;;;4955005;28;20406;-89
2022/01/14 13:47:12;;;;;;;33.00;13.07;;;21.20;48.40;;;;;;4955681;28;20058;-89
2022/01/14 13:49:41;;;;;;;31.75;13.52;;;19.80;47.50;;;;;;4924075;28;20093;-89
2022/01/14 13:52:12;;;;;;;34.72;13.52;;;20.00;47.50;;;;;;4950418;28;20047;-88
2022/01/14 13:54:54;;;;;;;34.65;15.35;;;20.20;47.90;;;;;;4935718;29;20149;-87
2022/01/14 13:57:21;;;;;;;30.73;14.10;;;19.40;47.80;;;;;;4936129;28;20039;-85
2022/01/14 14:00:17;;;;;;;29.50;12.70;;;18.00;46.80;;;;;;4935068;29;20442;-86
2022/01/14 14:02:59;;;;;;;28.50;13.00;;;19.20;47.30;;;;;;4921659;29;20059;-90
2022/01/14 14:05:45;;;;;;;30.13;12.98;;;21.30;48.80;;;;;;4934305;28;20051;-89
2022/01/14 14:08:22;;;;;;;26.77;12.73;;;19.90;48.40;;;;;;4940377;28;20042;-85
2022/01/14 14:12:09;;;;;;;28.92;12.32;;;20.90;48.50;;;;;;4938471;28;20050;-86
2022/01/14 14:17:04;;;;;;;26.35;11.20;;;19.90;47.70;;;;;;4954502;28;20097;-90
2022/01/14 14:19:45;;;;;;;26.33;12.43;;;19.90;47.70;;;;;;4950832;28;20047;-90
2022/01/14 14:22:23;;;;;;;25.63;12.02;;;21.40;48.50;;;;;;4951567;29;20062;-91
2022/01/14 14:25:11;;;;;;;25.67;11.73;;;19.90;47.70;;;;;;4935757;29;20094;-90
2022/01/14 14:27:38;;;;;;;21.35;10.45;;;19.90;47.90;;;;;;4946908;28;20055;-87
2022/01/14 14:30:14;;;;;;;23.75;9.65;;;19.90;47.90;;;;;;4953930;28;20387;-88
2022/01/14 14:32:40;;;;;;;26.70;10.32;;;21.00;48.60;;;;;;4954099;28;20050;-88
2022/01/14 14:35:19;;;;;;;26.92;10.73;;;19.90;48.00;;;;;;4953959;28;20407;-89
2022/01/14 14:37:55;;;;;;;25.83;10.52;;;21.20;49.00;;;;;;4953435;28;20058;-86
2022/01/14 14:40:28;;;;;;;21.10;9.55;;;19.90;48.10;;;;;;4953215;28;20639;-87
2022/01/14 14:42:54;;;;;;;21.50;9.18;;;18.70;47.40;;;;;;4953788;28;20578;-85
2022/01/14 14:45:37;;;;;;;23.00;8.95;;;21.40;49.40;;;;;;4949035;29;20138;-86
2022/01/14 14:48:37;;;;;;;26.90;9.25;;;19.40;48.40;;;;;;4947147;28;20078;-85
2022/01/14 14:51:15;;;;;;;16.67;7.90;;;19.80;48.00;;;;;;4954954;28;20058;-82
2022/01/14 14:53:44;;;;;;;19.38;8.57;;;19.90;48.20;;;;;;4953577;28;20047;-85
2022/01/14 14:56:19;;;;;;;20.35;8.27;;;19.50;48.20;;;;;;4953836;28;20061;-88
2022/01/14 14:58:44;;;;;;;19.60;8.63;;;19.50;48.30;;;;;;4951175;28;20050;-84
2022/01/14 15:01:22;;;;;;;20.85;8.40;;;19.60;48.00;;;;;;4947435;28;20774;-88
2022/01/14 15:06:55;;;;;;;17.20;6.63;;;19.90;47.90;;;;;;4937080;28;20723;-87
2022/01/14 15:09:46;;;;;;;18.48;7.20;;;19.80;48.10;;;;;;4950236;28;20055;-92
2022/01/14 15:12:12;;;;;;;16.23;7.28;;;20.00;47.70;;;;;;4894827;29;20056;-91
2022/01/14 15:18:19;;;;;;;16.48;6.95;;;20.10;48.30;;;;;;4917535;29;20126;-91
2022/01/14 15:21:00;;;;;;;14.63;5.88;;;18.40;47.40;;;;;;4917427;29;20063;-93
2022/01/14 15:23:26;;;;;;;17.00;6.75;;;19.90;48.10;;;;;;4901871;29;20080;-93
2022/01/14 15:25:54;;;;;;;15.80;6.95;;;20.00;47.80;;;;;;4862951;29;20048;-93
2022/01/14 15:38:57;;;;;;;14.55;6.07;;;19.00;47.00;;;;;;4899030;29;20098;-92
2022/01/14 15:42:14;;;;;;;13.50;5.45;;;19.80;48.30;;;;;;4885585;29;20155;-92
2022/01/14 15:44:40;;;;;;;14.07;6.32;;;19.40;47.10;;;;;;4883020;29;20088;-92
2022/01/14 15:47:17;;;;;;;13.27;5.72;;;21.60;48.50;;;;;;4886791;29;20159;-93
2022/01/14 15:49:45;;;;;;;14.10;5.80;;;21.50;48.70;;;;;;4899051;29;20044;-93
2022/01/14 15:52:10;;;;;;;12.00;5.45;;;21.20;48.60;;;;;;4901778;29;20102;-93
2022/01/14 15:54:51;;;;;;;11.73;5.45;;;20.60;48.60;;;;;;4933601;29;20127;-93
2022/01/14 15:57:19;;;;;;;12.48;5.25;;;19.40;47.40;;;;;;4901133;29;20196;-93
2022/01/14 15:59:45;;;;;;;12.35;5.13;;;20.10;47.90;;;;;;4901500;29;20044;-92
2022/01/14 16:02:20;;;;;;;12.70;4.80;;;18.30;46.80;;;;;;4910304;29;20066;-93
2022/01/14 16:04:58;;;;;;;11.90;4.60;;;21.60;48.40;;;;;;4939196;29;20142;-94
2022/01/14 16:07:25;;;;;;;11.25;4.20;;;20.50;48.00;;;;;;4955646;28;20054;-93
2022/01/14 16:09:55;;;;;;;12.02;4.85;;;20.90;48.00;;;;;;4961507;28;20051;-93
2022/01/14 16:12:22;;;;;;;9.77;4.47;;;20.60;47.70;;;;;;4960111;28;20264;-93
2022/01/14 16:15:07;;;;;;;11.07;4.85;;;20.90;47.90;;;;;;4959082;28;20097;-94
2022/01/14 16:17:33;;;;;;;10.68;4.40;;;20.00;47.20;;;;;;4962821;28;20081;-93
2022/01/14 16:20:01;;;;;;;12.38;4.75;;;21.80;48.80;;;;;;4961260;28;20051;-93
2022/01/14 16:22:39;;;;;;;11.15;4.10;;;20.50;47.70;;;;;;4960395;28;20043;-94
2022/01/14 16:25:20;;;;;;;10.85;4.43;;;20.00;47.70;;;;;;4958150;28;20518;-93
2022/01/14 16:27:51;;;;;;;10.75;3.95;;;21.40;48.20;;;;;;4959457;28;20058;-94
2022/01/14 16:30:29;;;;;;;10.15;3.90;;;20.50;47.80;;;;;;4947003;28;20047;-93
2022/01/14 16:32:55;;;;;;;9.10;3.65;;;21.80;49.00;;;;;;4959213;28;20074;-93
2022/01/14 16:35:33;;;;;;;11.38;4.15;;;21.10;47.90;;;;;;4946117;29;20051;-94
2022/01/14 16:37:59;;;;;;;9.77;3.60;;;21.10;48.30;;;;;;4943466;28;20511;-94
2022/01/14 16:40:34;;;;;;;9.57;3.72;;;20.70;47.70;;;;;;4957955;28;20074;-94
2022/01/14 16:43:09;;;;;;;10.27;3.80;;;20.90;47.90;;;;;;4955784;28;20047;-93
2022/01/14 16:45:36;;;;;;;8.52;3.50;;;21.30;48.10;;;;;;4942867;29;20075;-93
2022/01/14 16:48:04;;;;;;;9.13;3.92;;;20.10;47.50;;;;;;4956519;28;20062;-88